< < Back
Terminal Aerodrome Forecast


Current Version              Previous Versions:   1  2  3  4  5  6  7  8  9  

Terminal Aerodrome Forecast

138
FTUS44 KMOB 281128
TAFMOB
TAF
KMOB 281128Z 2812/2912 07003KT 5SM BR VCSH FEW009 FEW018 BKN100
     FM281400 14006KT P6SM VCTS BKN020CB BKN120
     FM290300 14005KT P6SM SCT100 BKN250
     FM290600 11003KT P6SM SCT250=



Latest METAR

693
SAUS80 KWBC 290400 RRA
MTRMOB
METAR KMOB 290356Z 04003KT 10SM FEW200 22/21 A3013 RMK AO2 SLP198
T02220211


USA.gov is the U.S. government's official web portal to all federal, state and local government web resources and services.